Time;durP1;ratioP1;P1;durP2;ratioP2;P2;SDS_P1;SDS_P2;PMS_P1;PMS_P2;Temp;Humidity;BMP_temperature;BMP_pressure;BME280_temperature;BME280_humidity;BME280_pressure;Samples;Min_cycle;Max_cycle;Signal;HPM_P1;HPM_P2
2021/09/13 00:02:06;;;;;;;1.33;1.10;;;18.70;67.60;;;;;;4959128;28;20039;-84
2021/09/13 00:04:31;;;;;;;2.97;1.17;;;18.60;67.60;;;;;;4959789;28;20067;-83
2021/09/13 00:06:57;;;;;;;3.90;1.38;;;18.60;67.50;;;;;;4959595;29;20441;-83
2021/09/13 00:09:23;;;;;;;1.80;1.02;;;18.50;67.50;;;;;;4959056;28;20463;-84
2021/09/13 00:11:49;;;;;;;2.38;1.13;;;18.50;67.40;;;;;;4959512;29;20114;-84
2021/09/13 00:14:15;;;;;;;2.22;1.10;;;18.50;67.50;;;;;;4959746;29;20023;-85
2021/09/13 00:16:40;;;;;;;2.53;0.93;;;18.50;68.20;;;;;;4959929;29;20361;-84
2021/09/13 00:19:06;;;;;;;1.73;1.10;;;18.50;67.40;;;;;;4959401;29;20043;-84
2021/09/13 00:21:32;;;;;;;3.65;1.23;;;18.50;67.10;;;;;;4942044;29;20035;-84
2021/09/13 00:23:57;;;;;;;1.90;1.10;;;18.50;67.40;;;;;;4959227;29;20036;-85
2021/09/13 00:26:23;;;;;;;1.80;1.20;;;18.50;67.20;;;;;;4959502;29;20051;-85
2021/09/13 00:28:49;;;;;;;2.05;1.15;;;18.40;67.20;;;;;;4942839;29;20118;-84
2021/09/13 00:31:14;;;;;;;2.35;1.20;;;18.50;67.10;;;;;;4959540;28;20110;-84
2021/09/13 00:33:40;;;;;;;2.88;1.38;;;18.40;67.10;;;;;;4958948;29;20058;-83
2021/09/13 00:36:06;;;;;;;2.15;1.20;;;18.40;67.40;;;;;;4959362;29;20484;-84
2021/09/13 00:38:32;;;;;;;3.80;1.30;;;18.40;67.20;;;;;;4958672;29;20503;-85
2021/09/13 00:40:58;;;;;;;2.58;1.30;;;18.40;67.10;;;;;;4958981;28;20046;-84
2021/09/13 00:43:24;;;;;;;1.75;1.30;;;18.40;67.10;;;;;;4959178;29;20484;-85
2021/09/13 00:45:50;;;;;;;2.05;1.25;;;18.40;67.10;;;;;;4958623;29;20035;-84
2021/09/13 00:48:16;;;;;;;2.40;1.20;;;18.40;67.10;;;;;;4959145;29;20158;-84
2021/09/13 00:50:42;;;;;;;2.00;1.27;;;18.30;67.00;;;;;;4959916;29;20487;-85
2021/09/13 00:53:08;;;;;;;2.20;1.27;;;18.40;67.40;;;;;;4960228;29;20029;-84
2021/09/13 00:55:34;;;;;;;3.58;1.38;;;18.40;67.10;;;;;;4961064;29;20059;-84
2021/09/13 00:58:00;;;;;;;2.30;1.30;;;18.30;67.00;;;;;;4963225;28;20023;-84
2021/09/13 01:00:25;;;;;;;2.28;1.60;;;18.20;67.00;;;;;;4977056;28;20054;-84
2021/09/13 01:02:51;;;;;;;1.95;1.60;;;18.20;67.00;;;;;;4970120;28;20452;-84
2021/09/13 01:05:17;;;;;;;2.60;1.45;;;18.20;67.20;;;;;;4938945;29;20043;-84
2021/09/13 01:07:43;;;;;;;2.40;1.25;;;18.20;67.40;;;;;;4959015;29;20023;-85
2021/09/13 01:10:09;;;;;;;3.63;1.40;;;18.20;67.40;;;;;;4956242;29;20404;-84
2021/09/13 01:12:36;;;;;;;2.72;1.40;;;18.10;67.10;;;;;;4956184;29;20023;-84
2021/09/13 01:15:03;;;;;;;5.20;1.40;;;18.20;67.50;;;;;;4956356;29;20106;-84
2021/09/13 01:17:28;;;;;;;2.45;1.23;;;18.10;68.00;;;;;;4956036;29;20534;-83
2021/09/13 01:19:54;;;;;;;1.92;1.10;;;18.20;67.40;;;;;;4956564;29;20031;-84
2021/09/13 01:22:20;;;;;;;2.42;1.35;;;18.10;66.90;;;;;;4955857;29;20110;-84
2021/09/13 01:24:46;;;;;;;2.00;1.40;;;18.10;66.90;;;;;;4956084;29;20040;-84
2021/09/13 01:27:13;;;;;;;4.03;1.60;;;18.10;67.10;;;;;;4955836;29;20031;-84
2021/09/13 01:29:39;;;;;;;3.40;1.55;;;18.10;67.40;;;;;;4955765;29;20416;-83
2021/09/13 01:32:06;;;;;;;2.65;1.45;;;18.00;67.20;;;;;;4955881;29;20020;-84
2021/09/13 01:34:33;;;;;;;4.90;1.60;;;17.90;67.60;;;;;;4955991;29;20035;-83
2021/09/13 01:36:58;;;;;;;2.45;1.52;;;17.90;67.60;;;;;;4955878;29;20024;-83
2021/09/13 01:39:24;;;;;;;3.97;1.80;;;17.90;67.70;;;;;;4955870;29;20027;-83
2021/09/13 01:41:50;;;;;;;4.25;1.60;;;17.90;68.00;;;;;;4955715;29;20500;-83
2021/09/13 01:44:16;;;;;;;2.10;1.50;;;17.90;67.70;;;;;;4955865;29;20808;-83
2021/09/13 01:46:43;;;;;;;2.45;1.60;;;17.90;67.70;;;;;;4956501;29;20034;-83
2021/09/13 01:49:10;;;;;;;3.35;1.88;;;18.00;67.70;;;;;;4954860;29;20035;-84
2021/09/13 01:51:36;;;;;;;3.28;1.60;;;18.00;67.30;;;;;;4954929;29;20456;-83
2021/09/13 01:54:02;;;;;;;2.80;1.65;;;18.00;67.40;;;;;;4954750;29;20027;-83
2021/09/13 01:56:28;;;;;;;2.40;1.50;;;18.00;67.60;;;;;;4953603;29;20038;-82
2021/09/13 01:58:54;;;;;;;3.85;1.60;;;18.00;67.50;;;;;;4944866;29;20026;-83
2021/09/13 02:01:21;;;;;;;2.42;1.70;;;18.00;67.30;;;;;;4955059;29;20396;-83
2021/09/13 02:03:47;;;;;;;2.13;1.40;;;17.90;67.50;;;;;;4954799;29;20035;-83
2021/09/13 02:06:14;;;;;;;2.33;1.77;;;18.00;67.80;;;;;;4955029;29;20058;-83
2021/09/13 02:08:41;;;;;;;3.55;1.40;;;18.00;67.70;;;;;;4955323;29;20039;-82
2021/09/13 02:11:07;;;;;;;2.42;1.58;;;18.00;67.70;;;;;;4955230;29;20031;-83
2021/09/13 02:13:33;;;;;;;2.50;1.88;;;18.00;67.70;;;;;;4955543;29;20031;-83
2021/09/13 02:15:58;;;;;;;3.53;1.65;;;18.00;67.70;;;;;;4954930;28;20373;-82
2021/09/13 02:18:24;;;;;;;3.05;1.60;;;18.00;67.80;;;;;;4954480;29;20027;-82
2021/09/13 02:20:50;;;;;;;3.67;1.65;;;18.00;67.60;;;;;;4955337;29;20032;-82
2021/09/13 02:23:16;;;;;;;3.97;1.90;;;18.00;67.60;;;;;;4955054;29;20039;-83
2021/09/13 02:25:42;;;;;;;4.20;1.88;;;18.00;67.60;;;;;;4955646;29;20023;-82
2021/09/13 02:28:07;;;;;;;2.88;1.85;;;18.00;67.50;;;;;;4954790;29;20105;-83
2021/09/13 02:30:33;;;;;;;3.63;1.75;;;17.90;67.80;;;;;;4954998;29;20032;-82
2021/09/13 02:32:59;;;;;;;4.25;1.90;;;18.00;67.60;;;;;;4954045;29;20456;-82
2021/09/13 02:35:25;;;;;;;2.25;1.63;;;17.90;67.60;;;;;;4954960;29;20042;-82
2021/09/13 02:37:50;;;;;;;2.83;1.77;;;17.90;67.90;;;;;;4955227;29;20031;-83
2021/09/13 02:40:16;;;;;;;3.75;1.73;;;17.90;68.10;;;;;;4937320;29;20039;-82
2021/09/13 02:42:42;;;;;;;3.40;1.90;;;18.00;68.00;;;;;;4954518;29;20118;-82
2021/09/13 02:45:08;;;;;;;3.40;1.90;;;17.90;67.80;;;;;;4954545;29;20042;-82
2021/09/13 02:47:34;;;;;;;3.22;2.10;;;18.00;68.00;;;;;;4954103;29;20033;-82
2021/09/13 02:49:59;;;;;;;2.42;1.90;;;18.00;67.90;;;;;;4954773;29;20054;-82
2021/09/13 02:52:25;;;;;;;3.40;1.60;;;18.00;67.80;;;;;;4954804;29;20480;-82
2021/09/13 02:54:51;;;;;;;2.08;1.55;;;18.00;67.70;;;;;;4954258;29;20051;-81
2021/09/13 02:57:16;;;;;;;2.25;1.70;;;18.00;67.80;;;;;;4954270;29;20039;-83
2021/09/13 02:59:44;;;;;;;2.35;1.67;;;18.00;67.90;;;;;;4954157;29;20031;-83
2021/09/13 03:02:10;;;;;;;3.47;1.63;;;18.00;67.70;;;;;;4953732;29;20114;-82
2021/09/13 03:04:36;;;;;;;2.50;1.70;;;17.90;67.80;;;;;;4954865;29;20035;-83
2021/09/13 03:07:02;;;;;;;4.47;2.10;;;17.90;68.10;;;;;;4954091;29;20083;-84
2021/09/13 03:09:27;;;;;;;2.97;1.90;;;18.00;68.20;;;;;;4954199;29;20542;-83
2021/09/13 03:11:53;;;;;;;4.45;1.73;;;17.90;67.80;;;;;;4954351;29;20051;-83
2021/09/13 03:14:19;;;;;;;1.60;1.50;;;18.00;68.10;;;;;;4954163;29;20062;-83
2021/09/13 03:16:44;;;;;;;3.05;2.00;;;18.00;68.30;;;;;;4954383;29;20031;-83
2021/09/13 03:19:10;;;;;;;2.50;2.05;;;18.00;68.10;;;;;;4953910;29;20038;-82
2021/09/13 03:21:36;;;;;;;2.60;1.70;;;18.00;68.00;;;;;;4936616;29;20090;-82
2021/09/13 03:24:01;;;;;;;3.13;1.92;;;17.90;67.90;;;;;;4953972;29;20024;-83
2021/09/13 03:26:27;;;;;;;1.63;1.50;;;17.90;68.40;;;;;;4953581;28;20023;-83
2021/09/13 03:28:52;;;;;;;3.08;1.98;;;17.90;68.20;;;;;;4954482;29;20054;-83
2021/09/13 03:31:18;;;;;;;2.50;1.92;;;17.90;68.20;;;;;;4953426;29;20476;-83
2021/09/13 03:33:44;;;;;;;3.20;1.70;;;17.90;68.10;;;;;;4953578;29;20101;-83
2021/09/13 03:36:09;;;;;;;3.13;1.98;;;17.90;68.70;;;;;;4953630;29;20481;-83
2021/09/13 03:38:35;;;;;;;4.20;1.65;;;17.90;68.10;;;;;;4953720;29;20105;-84
2021/09/13 03:41:01;;;;;;;2.22;1.70;;;17.80;68.30;;;;;;4953828;29;20030;-83
2021/09/13 03:43:26;;;;;;;2.63;1.67;;;17.80;68.40;;;;;;4953324;29;20039;-83
2021/09/13 03:45:53;;;;;;;4.05;2.00;;;17.80;68.40;;;;;;4953308;29;20032;-84
2021/09/13 03:48:20;;;;;;;2.38;1.83;;;17.70;68.50;;;;;;4953503;29;20530;-84
2021/09/13 03:50:46;;;;;;;3.10;1.75;;;17.70;68.60;;;;;;4953662;29;20020;-84
2021/09/13 03:53:12;;;;;;;3.30;1.77;;;17.80;68.90;;;;;;4953648;29;20035;-83
2021/09/13 03:55:37;;;;;;;2.70;1.60;;;17.80;68.60;;;;;;4953993;29;20023;-83
2021/09/13 03:58:04;;;;;;;3.60;1.58;;;17.80;68.80;;;;;;4953527;29;20031;-84
2021/09/13 04:00:30;;;;;;;3.13;1.67;;;17.80;68.60;;;;;;4953268;29;20106;-83
2021/09/13 04:02:56;;;;;;;2.78;1.75;;;17.80;68.70;;;;;;4935638;29;20082;-83
2021/09/13 04:05:24;;;;;;;3.22;1.60;;;17.80;69.00;;;;;;4953058;29;20408;-83
2021/09/13 04:12:53;;;;;;;3.20;1.92;;;17.70;68.80;;;;;;4952068;29;20114;-84
2021/09/13 04:15:19;;;;;;;2.90;1.70;;;17.70;68.70;;;;;;4951779;29;20111;-84
2021/09/13 04:17:44;;;;;;;3.78;1.77;;;17.70;69.00;;;;;;4952156;29;20035;-84
2021/09/13 04:20:11;;;;;;;3.60;1.70;;;17.70;69.00;;;;;;4953109;29;20507;-83
2021/09/13 04:22:36;;;;;;;2.30;1.63;;;17.70;69.10;;;;;;4953911;29;20500;-84
2021/09/13 04:25:02;;;;;;;4.80;1.80;;;17.70;69.00;;;;;;4953234;29;20085;-84
2021/09/13 04:27:30;;;;;;;3.63;2.00;;;17.60;68.90;;;;;;4953235;29;20058;-84
2021/09/13 04:29:56;;;;;;;3.60;2.00;;;17.60;69.20;;;;;;4953045;29;20067;-84
2021/09/13 04:32:21;;;;;;;3.95;1.90;;;17.60;69.50;;;;;;4953202;29;20172;-84
2021/09/13 04:34:47;;;;;;;3.25;1.80;;;17.60;69.30;;;;;;4953702;29;20403;-83
2021/09/13 04:37:14;;;;;;;2.80;2.00;;;17.60;69.10;;;;;;4953130;29;20047;-83
2021/09/13 04:39:39;;;;;;;5.63;1.90;;;17.60;69.20;;;;;;4954975;28;20031;-83
2021/09/13 04:42:05;;;;;;;2.80;1.70;;;17.60;69.30;;;;;;4956927;29;20046;-83
2021/09/13 04:44:31;;;;;;;3.67;1.85;;;17.60;69.20;;;;;;4956457;29;20027;-83
2021/09/13 04:46:56;;;;;;;3.63;2.10;;;17.60;69.40;;;;;;4943127;29;20039;-83
2021/09/13 04:49:24;;;;;;;3.20;2.25;;;17.60;69.30;;;;;;4947724;29;20043;-84
2021/09/13 04:51:50;;;;;;;3.63;1.92;;;17.60;69.20;;;;;;4952388;29;20039;-84
2021/09/13 04:54:16;;;;;;;2.67;2.03;;;17.60;69.20;;;;;;4956453;29;20085;-84
2021/09/13 04:56:42;;;;;;;2.80;2.00;;;17.60;69.20;;;;;;4957139;29;20743;-82
2021/09/13 04:59:08;;;;;;;2.90;2.03;;;17.60;69.50;;;;;;4956255;29;20492;-83
2021/09/13 05:01:34;;;;;;;2.67;1.80;;;17.70;69.20;;;;;;4956722;29;20170;-83
2021/09/13 05:04:01;;;;;;;3.15;1.83;;;17.60;69.30;;;;;;4956390;29;20027;-83
2021/09/13 05:06:26;;;;;;;4.10;2.20;;;17.70;69.30;;;;;;4956409;29;20023;-84
2021/09/13 05:08:52;;;;;;;2.97;2.00;;;17.60;69.20;;;;;;4956094;29;20035;-83
2021/09/13 05:11:17;;;;;;;2.63;1.73;;;17.70;69.20;;;;;;4956176;29;20142;-84
2021/09/13 05:13:43;;;;;;;2.17;1.70;;;17.70;69.40;;;;;;4956457;29;20513;-83
2021/09/13 05:16:09;;;;;;;3.13;1.90;;;17.60;69.30;;;;;;4956104;29;20047;-82
2021/09/13 05:18:34;;;;;;;3.03;1.95;;;17.60;69.40;;;;;;4956101;29;20102;-84
2021/09/13 05:21:00;;;;;;;2.95;1.75;;;17.60;69.40;;;;;;4956049;29;20074;-82
2021/09/13 05:23:26;;;;;;;2.40;2.00;;;17.60;69.60;;;;;;4956080;29;20035;-83
2021/09/13 05:25:51;;;;;;;2.05;1.58;;;17.50;69.60;;;;;;4956602;29;20030;-82
2021/09/13 05:28:17;;;;;;;2.38;1.77;;;17.50;69.80;;;;;;4955604;29;20055;-83
2021/09/13 05:30:43;;;;;;;2.90;1.70;;;17.50;69.70;;;;;;4950571;29;20023;-83
2021/09/13 05:33:08;;;;;;;3.45;1.80;;;17.50;70.00;;;;;;4946290;29;20145;-84
2021/09/13 05:35:34;;;;;;;2.45;1.70;;;17.50;69.80;;;;;;4955877;29;20019;-83
2021/09/13 05:38:00;;;;;;;4.03;2.10;;;17.50;70.00;;;;;;4956061;29;20063;-84
2021/09/13 05:40:26;;;;;;;3.83;2.10;;;17.50;69.90;;;;;;4956141;29;20039;-84
2021/09/13 05:42:51;;;;;;;4.07;1.85;;;17.50;70.00;;;;;;4955163;29;20541;-83
2021/09/13 05:45:17;;;;;;;4.28;2.20;;;17.50;70.40;;;;;;4956024;29;20043;-83
2021/09/13 05:47:42;;;;;;;3.60;1.85;;;17.50;70.30;;;;;;4944715;29;20055;-84
2021/09/13 05:50:09;;;;;;;3.95;2.00;;;17.50;70.10;;;;;;4956039;28;20042;-84
2021/09/13 05:52:34;;;;;;;3.10;2.00;;;17.50;70.30;;;;;;4953587;29;20028;-83
2021/09/13 05:55:01;;;;;;;3.20;2.05;;;17.50;70.30;;;;;;4972428;29;20021;-82
2021/09/13 05:57:27;;;;;;;3.53;2.15;;;17.50;70.30;;;;;;4979674;29;20059;-83
2021/09/13 05:59:53;;;;;;;3.15;2.10;;;17.50;70.40;;;;;;4956185;29;20035;-76
2021/09/13 06:02:19;;;;;;;4.90;2.00;;;17.50;70.20;;;;;;4955276;29;20407;-85
2021/09/13 06:04:46;;;;;;;4.07;1.90;;;17.50;70.30;;;;;;4953172;29;20457;-82
2021/09/13 06:07:11;;;;;;;5.18;2.00;;;17.50;70.20;;;;;;4955266;29;20038;-84
2021/09/13 06:09:38;;;;;;;2.45;1.83;;;17.50;70.40;;;;;;4955304;29;20043;-81
2021/09/13 06:12:04;;;;;;;3.25;1.90;;;17.50;70.20;;;;;;4955278;29;20066;-81
2021/09/13 06:14:29;;;;;;;3.58;1.90;;;17.60;70.20;;;;;;4952157;29;20061;-82
2021/09/13 06:16:55;;;;;;;3.78;2.10;;;17.60;70.40;;;;;;4955616;29;20063;-82
2021/09/13 06:19:20;;;;;;;4.07;2.00;;;17.60;70.40;;;;;;4955485;29;20039;-83
2021/09/13 06:21:46;;;;;;;3.83;2.28;;;17.60;70.20;;;;;;4955079;29;20042;-83
2021/09/13 06:24:12;;;;;;;3.20;2.10;;;17.60;70.60;;;;;;4954676;29;20058;-82
2021/09/13 06:26:38;;;;;;;3.88;2.20;;;17.70;70.40;;;;;;4955191;29;20091;-82
2021/09/13 06:29:06;;;;;;;7.80;2.30;;;17.80;70.50;;;;;;4955103;29;20038;-82
2021/09/13 06:31:31;;;;;;;2.88;2.20;;;17.80;70.30;;;;;;4955349;29;20024;-80
2021/09/13 06:33:57;;;;;;;3.63;2.05;;;17.90;69.90;;;;;;4954577;29;20061;-79
2021/09/13 06:36:23;;;;;;;3.30;2.35;;;17.90;70.00;;;;;;4949389;29;20512;-76
2021/09/13 06:38:49;;;;;;;3.20;2.10;;;17.90;70.00;;;;;;4946600;29;20028;-70
2021/09/13 06:41:14;;;;;;;2.97;2.20;;;17.90;70.20;;;;;;4947124;29;20094;-73
2021/09/13 06:43:43;;;;;;;3.70;2.55;;;17.90;69.90;;;;;;4949493;29;20024;-72
2021/09/13 06:48:53;;;;;;;3.72;2.05;;;18.00;69.90;;;;;;4941821;29;20468;-70
2021/09/13 06:51:19;;;;;;;3.83;2.35;;;18.00;69.80;;;;;;4947660;29;20488;-70
2021/09/13 06:53:45;;;;;;;3.55;2.42;;;18.00;69.80;;;;;;4949372;29;20035;-69
2021/09/13 06:56:12;;;;;;;4.82;2.20;;;18.10;69.80;;;;;;4945835;29;20055;-68
2021/09/13 06:58:38;;;;;;;5.28;2.22;;;18.10;69.60;;;;;;4947174;29;20476;-66
2021/09/13 07:01:04;;;;;;;3.63;2.50;;;18.20;69.40;;;;;;4945934;28;20047;-68
2021/09/13 07:03:30;;;;;;;3.92;2.33;;;18.20;69.40;;;;;;4945724;29;20043;-66
2021/09/13 07:05:55;;;;;;;3.10;2.30;;;18.20;69.20;;;;;;4946465;29;20126;-61
2021/09/13 07:08:21;;;;;;;6.82;2.58;;;18.20;69.30;;;;;;4945247;29;20049;-62
2021/09/13 07:10:48;;;;;;;3.65;2.45;;;18.30;69.30;;;;;;4945814;29;20106;-62
2021/09/13 07:13:13;;;;;;;4.55;2.40;;;18.20;69.30;;;;;;4946255;29;20046;-65
2021/09/13 07:15:39;;;;;;;4.80;2.50;;;18.20;69.30;;;;;;4946613;29;20027;-72
2021/09/13 07:18:08;;;;;;;3.55;2.33;;;18.30;69.30;;;;;;4944228;29;20086;-69
2021/09/13 07:20:34;;;;;;;3.25;2.58;;;18.30;69.40;;;;;;4944292;29;20038;-68
2021/09/13 07:23:00;;;;;;;4.78;2.70;;;18.50;69.50;;;;;;4944795;29;20028;-68
2021/09/13 07:25:25;;;;;;;3.90;2.40;;;18.50;69.00;;;;;;4946658;29;20035;-67
2021/09/13 07:27:51;;;;;;;3.35;2.47;;;18.40;68.80;;;;;;4946178;29;20106;-65
2021/09/13 07:30:16;;;;;;;3.75;2.42;;;18.60;69.30;;;;;;4946171;29;20242;-73
2021/09/13 07:32:42;;;;;;;2.95;2.25;;;18.60;68.20;;;;;;4937789;29;20432;-77
2021/09/13 07:35:10;;;;;;;3.85;2.35;;;18.60;68.30;;;;;;4942801;29;20882;-77
2021/09/13 07:37:37;;;;;;;4.05;2.28;;;18.60;68.40;;;;;;4945243;29;20020;-82
2021/09/13 07:40:04;;;;;;;3.30;2.33;;;18.70;69.00;;;;;;4943283;29;20477;-75
2021/09/13 07:42:30;;;;;;;3.13;2.25;;;18.90;68.60;;;;;;4946006;29;20027;-74
2021/09/13 07:44:57;;;;;;;4.00;2.17;;;18.90;68.10;;;;;;4944523;29;20027;-74
2021/09/13 07:47:23;;;;;;;2.97;2.50;;;18.80;67.40;;;;;;4947212;29;20055;-74
2021/09/13 07:49:48;;;;;;;3.00;2.08;;;18.80;68.00;;;;;;4942829;29;20071;-74
2021/09/13 07:52:14;;;;;;;4.57;2.65;;;18.80;68.20;;;;;;4944891;29;20051;-73
2021/09/13 07:54:39;;;;;;;3.28;2.45;;;18.90;68.00;;;;;;4944198;29;20035;-71
2021/09/13 07:57:05;;;;;;;4.25;2.53;;;18.90;67.80;;;;;;4945225;29;20027;-71
2021/09/13 07:59:31;;;;;;;2.78;2.25;;;19.00;68.30;;;;;;4943417;29;20400;-71
2021/09/13 08:01:56;;;;;;;3.53;2.40;;;19.10;68.00;;;;;;4942541;29;20035;-71
2021/09/13 08:04:22;;;;;;;2.97;2.47;;;19.30;67.60;;;;;;4931956;29;20499;-71
2021/09/13 08:06:48;;;;;;;3.65;2.40;;;19.50;68.20;;;;;;4881159;29;20027;-71
2021/09/13 08:09:13;;;;;;;3.72;2.40;;;19.90;67.90;;;;;;4871507;29;20074;-72
2021/09/13 08:11:40;;;;;;;3.78;2.40;;;20.40;66.60;;;;;;4917448;29;20036;-72
2021/09/13 08:14:06;;;;;;;3.50;2.50;;;20.70;66.50;;;;;;4948443;28;20102;-72
2021/09/13 08:16:32;;;;;;;3.08;2.50;;;20.90;64.20;;;;;;4911534;29;20496;-71
2021/09/13 08:18:58;;;;;;;5.28;2.30;;;20.90;63.90;;;;;;4877261;29;20039;-70
2021/09/13 08:21:26;;;;;;;4.63;2.70;;;20.90;62.80;;;;;;4909296;29;20039;-70
2021/09/13 08:23:52;;;;;;;3.17;2.22;;;20.80;63.30;;;;;;4907812;29;20031;-71
2021/09/13 08:26:18;;;;;;;4.32;2.53;;;20.90;64.10;;;;;;4913260;29;20066;-72
2021/09/13 08:28:44;;;;;;;3.55;2.30;;;21.20;63.50;;;;;;4899812;29;20039;-72
2021/09/13 08:31:10;;;;;;;2.83;1.70;;;21.60;64.00;;;;;;4903679;29;20067;-72
2021/09/13 08:33:36;;;;;;;3.60;2.30;;;21.90;65.00;;;;;;4932130;29;20516;-72
2021/09/13 08:36:03;;;;;;;3.17;2.25;;;22.00;62.40;;;;;;4879925;29;20036;-72
2021/09/13 08:38:29;;;;;;;3.90;2.30;;;22.20;61.40;;;;;;4903506;29;20583;-73
2021/09/13 08:40:55;;;;;;;3.95;2.35;;;22.20;59.60;;;;;;4890757;29;20894;-73
2021/09/13 08:43:21;;;;;;;4.80;2.80;;;22.20;60.60;;;;;;4890425;29;20043;-74
2021/09/13 08:45:57;;;;;;;4.75;2.40;;;22.10;60.60;;;;;;4924569;29;20039;-73
2021/09/13 08:48:34;;;;;;;4.35;2.65;;;22.20;59.90;;;;;;4917796;29;20046;-73
2021/09/13 08:53:40;;;;;;;4.68;2.10;;;22.20;61.50;;;;;;4908650;29;20032;-71
2021/09/13 08:56:13;;;;;;;3.10;1.83;;;22.40;61.50;;;;;;4892769;29;20032;-70
2021/09/13 08:58:40;;;;;;;3.47;2.55;;;22.80;61.60;;;;;;4889125;29;20036;-72
2021/09/13 09:01:06;;;;;;;3.17;2.10;;;23.00;59.90;;;;;;4897230;29;21195;-71
2021/09/13 09:03:35;;;;;;;4.90;2.50;;;23.30;60.50;;;;;;4916401;29;20416;-72
2021/09/13 09:06:02;;;;;;;3.70;2.65;;;23.40;58.40;;;;;;4907185;29;20078;-71
2021/09/13 09:08:31;;;;;;;5.05;2.15;;;23.50;58.70;;;;;;4897318;29;20069;-73
2021/09/13 09:11:02;;;;;;;5.15;2.28;;;23.50;58.90;;;;;;4910776;29;20123;-73
2021/09/13 09:13:41;;;;;;;3.47;2.47;;;23.70;58.60;;;;;;4922059;29;20047;-73
2021/09/13 09:16:06;;;;;;;3.78;2.38;;;24.00;58.40;;;;;;4896436;29;20027;-73
2021/09/13 09:18:49;;;;;;;2.95;2.20;;;24.00;57.10;;;;;;4902089;29;20040;-73
2021/09/13 09:21:33;;;;;;;3.05;2.35;;;24.30;58.90;;;;;;4901626;29;20035;-73
2021/09/13 09:24:08;;;;;;;5.13;2.70;;;24.40;56.30;;;;;;4905156;29;21066;-73
2021/09/13 09:26:33;;;;;;;3.92;2.25;;;24.40;57.00;;;;;;4954141;29;20031;-73
2021/09/13 09:29:00;;;;;;;4.20;2.50;;;24.60;58.20;;;;;;4955389;29;20039;-72
2021/09/13 09:31:39;;;;;;;6.30;2.60;;;24.70;56.60;;;;;;4955924;29;20491;-73
2021/09/13 09:34:18;;;;;;;7.40;2.65;;;24.70;56.50;;;;;;4937432;29;20542;-73
2021/09/13 09:37:06;;;;;;;6.20;2.67;;;24.70;55.80;;;;;;4954993;29;20035;-73
2021/09/13 09:39:39;;;;;;;4.03;2.72;;;24.60;55.80;;;;;;4955042;29;20033;-74
2021/09/13 09:42:07;;;;;;;;;;;24.50;55.20;;;;;;4937987;29;20031;-73
2021/09/13 09:44:34;;;;;;;4.15;2.13;;;24.60;56.20;;;;;;4954933;29;19932;-72
2021/09/13 09:47:02;;;;;;;3.47;2.53;;;24.50;54.50;;;;;;4948694;29;20479;-72
2021/09/13 09:49:43;;;;;;;4.25;2.72;;;24.40;55.80;;;;;;4951738;29;20066;-72
2021/09/13 09:52:10;;;;;;;3.80;2.50;;;24.40;56.30;;;;;;4954198;29;20163;-72
2021/09/13 09:54:35;;;;;;;3.63;2.22;;;24.50;56.10;;;;;;4954877;29;20110;-72
2021/09/13 09:57:07;;;;;;;8.80;2.72;;;24.80;56.10;;;;;;4937063;29;20190;-72
2021/09/13 09:59:37;;;;;;;5.18;2.63;;;25.20;56.70;;;;;;4937621;29;20019;-72
2021/09/13 10:02:20;;;;;;;3.10;2.30;;;25.80;55.20;;;;;;4952869;29;20527;-72
2021/09/13 10:04:48;;;;;;;3.70;2.90;;;26.20;55.20;;;;;;4951334;28;20042;-72
2021/09/13 10:07:15;;;;;;;3.58;2.42;;;26.20;52.30;;;;;;4954705;29;20024;-72
2021/09/13 10:09:42;;;;;;;3.42;2.50;;;26.10;52.80;;;;;;4951039;29;20036;-72
2021/09/13 10:12:09;;;;;;;3.72;2.70;;;26.10;53.10;;;;;;4953275;29;20050;-73
2021/09/13 10:14:35;;;;;;;5.88;3.42;;;26.10;52.90;;;;;;4950230;29;20110;-73
2021/09/13 10:17:01;;;;;;;4.32;2.85;;;26.00;52.20;;;;;;4953504;29;20078;-73
2021/09/13 10:19:28;;;;;;;3.78;2.38;;;26.20;53.00;;;;;;4953798;29;20030;-73
2021/09/13 10:21:55;;;;;;;3.80;2.90;;;26.50;53.70;;;;;;4952992;29;20039;-73
2021/09/13 10:24:31;;;;;;;4.13;3.20;;;26.60;52.40;;;;;;4953014;29;20399;-73
2021/09/13 10:27:00;;;;;;;6.53;3.67;;;26.80;51.70;;;;;;4954145;29;20031;-73
2021/09/13 10:29:28;;;;;;;4.07;2.90;;;26.90;49.90;;;;;;4939217;29;20039;-73
2021/09/13 10:31:57;;;;;;;3.97;2.63;;;27.30;50.80;;;;;;4950890;29;20082;-74
2021/09/13 10:34:31;;;;;;;4.28;2.47;;;27.90;51.20;;;;;;4954315;29;20047;-73
2021/09/13 10:37:15;;;;;;;4.72;2.67;;;28.70;50.10;;;;;;4954425;28;20114;-73
2021/09/13 10:39:50;;;;;;;4.43;2.13;;;28.90;48.80;;;;;;4937081;29;20030;-72
2021/09/13 10:42:29;;;;;;;4.63;2.70;;;29.30;49.40;;;;;;4954349;29;20420;-72
2021/09/13 10:45:06;;;;;;;3.45;2.08;;;29.60;46.30;;;;;;4954318;29;20089;-73
2021/09/13 10:47:32;;;;;;;3.08;2.20;;;29.80;46.10;;;;;;4938151;29;20031;-73
2021/09/13 10:50:39;;;;;;;2.65;2.20;;;30.10;44.80;;;;;;4953487;29;20094;-72
2021/09/13 10:53:27;;;;;;;3.58;2.30;;;30.10;44.20;;;;;;4854577;29;20089;-72
2021/09/13 10:55:55;;;;;;;6.65;2.25;;;30.20;43.70;;;;;;4845960;29;20046;-73
2021/09/13 10:58:44;;;;;;;3.75;2.10;;;30.40;42.40;;;;;;4857370;29;20060;-73
2021/09/13 11:01:29;;;;;;;3.60;2.38;;;30.80;43.20;;;;;;4840737;29;20082;-70
2021/09/13 11:03:56;;;;;;;4.68;2.40;;;30.60;42.50;;;;;;4856830;29;20041;-70
2021/09/13 11:06:22;;;;;;;3.50;2.20;;;29.70;40.00;;;;;;4841944;29;20029;-70
2021/09/13 11:08:49;;;;;;;3.08;2.25;;;29.00;42.50;;;;;;4839810;29;20056;-73
2021/09/13 11:11:25;;;;;;;2.65;2.10;;;29.10;43.00;;;;;;4849026;29;20612;-73
2021/09/13 11:14:08;;;;;;;3.05;1.83;;;29.70;45.00;;;;;;4856758;29;20526;-72
2021/09/13 11:16:36;;;;;;;2.80;1.77;;;30.20;44.40;;;;;;4856847;29;20545;-76
2021/09/13 11:19:08;;;;;;;3.63;2.10;;;31.00;43.40;;;;;;4855775;29;20042;-78
2021/09/13 11:21:35;;;;;;;3.45;2.05;;;31.00;38.60;;;;;;4856441;29;20034;-77
2021/09/13 11:24:03;;;;;;;2.75;1.83;;;31.20;41.10;;;;;;4856194;29;20144;-77
2021/09/13 11:26:41;;;;;;;4.00;2.17;;;31.80;40.20;;;;;;4856136;29;20026;-76
2021/09/13 11:29:08;;;;;;;2.25;1.60;;;32.10;40.00;;;;;;4875717;29;20047;-77
2021/09/13 11:31:36;;;;;;;2.13;1.40;;;32.30;38.50;;;;;;4952994;29;20027;-77
2021/09/13 11:34:04;;;;;;;4.25;1.80;;;32.60;40.50;;;;;;4952832;29;20130;-77
2021/09/13 11:36:31;;;;;;;1.75;1.48;;;32.00;36.70;;;;;;4946833;29;20034;-77
2021/09/13 11:39:04;;;;;;;3.42;1.70;;;32.30;37.50;;;;;;4953248;29;20067;-77
2021/09/13 11:41:30;;;;;;;2.50;1.73;;;32.60;37.90;;;;;;4939018;29;20065;-74
2021/09/13 11:44:06;;;;;;;2.63;1.85;;;32.90;37.90;;;;;;4953582;29;20057;-76
2021/09/13 11:46:50;;;;;;;2.20;1.50;;;32.80;37.30;;;;;;4951912;29;20022;-76
2021/09/13 11:49:21;;;;;;;4.28;2.00;;;32.40;33.50;;;;;;4952315;29;20040;-76
2021/09/13 11:52:05;;;;;;;2.50;1.55;;;31.80;36.40;;;;;;4953446;29;20030;-77
2021/09/13 11:54:32;;;;;;;2.78;1.40;;;32.00;38.50;;;;;;4953584;29;20097;-76
2021/09/13 11:56:57;;;;;;;3.45;1.60;;;32.10;37.60;;;;;;4953541;29;20031;-76
2021/09/13 11:59:25;;;;;;;2.65;1.48;;;32.30;37.10;;;;;;4952020;29;20519;-77
2021/09/13 12:02:00;;;;;;;3.83;1.40;;;32.40;37.30;;;;;;4906605;29;20093;-77
2021/09/13 12:04:28;;;;;;;1.92;1.40;;;32.20;35.00;;;;;;4888127;29;20102;-77
2021/09/13 12:07:08;;;;;;;1.58;1.10;;;31.90;35.90;;;;;;4897557;29;20058;-77
2021/09/13 12:09:34;;;;;;;2.10;1.23;;;31.80;34.80;;;;;;4871842;29;20162;-76
2021/09/13 12:12:01;;;;;;;3.22;1.10;;;31.50;36.00;;;;;;4910600;29;20449;-77
2021/09/13 12:14:28;;;;;;;1.38;1.10;;;31.30;36.50;;;;;;4932813;29;20027;-76
2021/09/13 12:17:08;;;;;;;1.77;1.30;;;31.10;36.40;;;;;;4953548;29;20110;-76
2021/09/13 12:19:38;;;;;;;1.35;1.20;;;30.80;37.00;;;;;;4953063;29;20103;-76
2021/09/13 12:22:06;;;;;;;3.42;1.35;;;31.20;37.60;;;;;;4952869;29;20031;-76
2021/09/13 12:24:32;;;;;;;2.05;1.30;;;31.40;35.00;;;;;;4953052;29;20038;-76
2021/09/13 12:27:20;;;;;;;3.38;1.20;;;31.40;35.50;;;;;;4945424;29;20345;-77
2021/09/13 12:29:56;;;;;;;1.83;1.13;;;31.80;36.80;;;;;;4940698;29;20038;-76
2021/09/13 12:32:27;;;;;;;5.13;1.30;;;31.80;34.40;;;;;;4953470;29;20047;-77
2021/09/13 12:35:13;;;;;;;1.52;1.20;;;31.80;35.30;;;;;;4950293;29;20499;-78
2021/09/13 12:37:40;;;;;;;1.45;1.20;;;32.10;34.60;;;;;;4953521;29;20071;-77
2021/09/13 12:40:13;;;;;;;1.23;1.10;;;32.00;35.90;;;;;;4958068;29;20106;-78
2021/09/13 12:42:53;;;;;;;1.23;1.10;;;32.60;35.80;;;;;;4953202;29;20035;-76
2021/09/13 12:45:21;;;;;;;1.75;1.10;;;32.90;32.60;;;;;;4952946;29;20070;-76
2021/09/13 12:47:56;;;;;;;1.48;1.10;;;32.90;32.50;;;;;;4952869;29;20044;-76
2021/09/13 12:50:41;;;;;;;1.20;1.10;;;33.00;31.20;;;;;;4952528;29;20036;-76
2021/09/13 12:53:21;;;;;;;1.35;1.00;;;33.40;32.00;;;;;;4949771;29;20033;-76
2021/09/13 12:55:47;;;;;;;1.60;0.90;;;34.30;34.00;;;;;;4952025;29;20040;-76
2021/09/13 12:58:27;;;;;;;1.10;0.90;;;34.80;29.40;;;;;;4952517;29;20031;-75
2021/09/13 13:00:53;;;;;;;1.45;1.00;;;35.10;30.70;;;;;;4954349;28;20074;-75
2021/09/13 13:03:19;;;;;;;1.40;1.13;;;35.80;29.60;;;;;;4955223;29;20034;-75